createdAt,value
2023-04-03T00:02:06.061Z,2.03
2023-04-03T00:04:38.075Z,0.53
2023-04-03T00:07:10.888Z,1.40
2023-04-03T00:09:42.134Z,1.10
2023-04-03T00:12:14.568Z,0.70
2023-04-03T00:14:45.767Z,0.80
2023-04-03T00:17:20.192Z,0.20
2023-04-03T00:19:51.794Z,0.57
2023-04-03T00:22:28.632Z,1.30
2023-04-03T00:25:01.107Z,1.10
2023-04-03T00:27:33.077Z,0.40
2023-04-03T00:30:04.551Z,2.77
2023-04-03T00:32:38.202Z,1.13
2023-04-03T00:35:11.151Z,0.80
2023-04-03T00:37:46.462Z,2.10
2023-04-03T00:40:24.641Z,0.60
2023-04-03T00:42:59.959Z,1.00
2023-04-03T00:45:37.365Z,1.50
2023-04-03T00:48:12.903Z,1.27
2023-04-03T00:50:46.818Z,4.93
2023-04-03T00:53:21.034Z,2.00
2023-04-03T00:55:53.613Z,2.90
2023-04-03T00:58:28.723Z,1.63
2023-04-03T01:01:03.104Z,0.83
2023-04-03T01:03:37.520Z,3.20
2023-04-03T01:06:14.705Z,1.83
2023-04-03T01:08:46.580Z,1.50
2023-04-03T01:11:18.426Z,1.57
2023-04-03T01:13:51.162Z,1.40
2023-04-03T01:16:22.746Z,2.30
2023-04-03T01:18:56.468Z,3.73
2023-04-03T01:22:00.245Z,0.60
2023-04-03T01:24:40.973Z,4.30
2023-04-03T01:27:14.537Z,1.50
2023-04-03T01:29:47.718Z,3.57
2023-04-03T01:32:22.746Z,1.30
2023-04-03T01:34:54.212Z,1.03
2023-04-03T01:37:25.733Z,4.60
2023-04-03T01:39:57.183Z,2.67
2023-04-03T01:42:28.488Z,1.93
2023-04-03T01:44:59.956Z,0.83
2023-04-03T01:47:33.579Z,2.77
2023-04-03T01:50:04.917Z,2.30
2023-04-03T01:52:36.489Z,1.50
2023-04-03T01:55:08.678Z,2.50
2023-04-03T01:57:41.314Z,2.33
2023-04-03T02:00:14.089Z,1.53
2023-04-03T02:02:47.581Z,1.63
2023-04-03T02:05:19.110Z,1.70
2023-04-03T02:07:51.035Z,2.47
2023-04-03T02:10:22.641Z,3.03
2023-04-03T02:12:54.211Z,1.93
2023-04-03T02:15:25.827Z,2.63
2023-04-03T02:18:00.068Z,2.17
2023-04-03T02:20:31.818Z,1.90
2023-04-03T02:23:04.077Z,1.83
2023-04-03T02:25:38.549Z,1.30
2023-04-03T02:28:10.796Z,2.73
2023-04-03T02:30:42.309Z,3.77
2023-04-03T02:33:16.035Z,1.77
2023-04-03T02:35:55.520Z,1.90
2023-04-03T02:38:27.668Z,4.50
2023-04-03T02:41:04.236Z,2.40
2023-04-03T02:43:35.753Z,2.20
2023-04-03T02:46:07.748Z,2.27
2023-04-03T02:48:42.718Z,3.33
2023-04-03T02:51:14.547Z,2.33
2023-04-03T02:53:46.325Z,1.43
2023-04-03T02:56:17.783Z,2.60
2023-04-03T02:58:49.347Z,3.30
2023-04-03T03:01:21.029Z,2.37
2023-04-03T03:03:55.095Z,1.97
2023-04-03T03:06:26.999Z,1.63
2023-04-03T03:08:58.440Z,2.37
2023-04-03T03:11:30.092Z,4.53
2023-04-03T03:14:01.504Z,1.30
2023-04-03T03:16:32.904Z,2.00
2023-04-03T03:19:07.408Z,3.53
2023-04-03T03:21:40.193Z,1.43
2023-04-03T03:24:12.128Z,1.60
2023-04-03T03:26:43.539Z,1.50
2023-04-03T03:29:14.933Z,2.07
2023-04-03T03:31:46.437Z,2.33
2023-04-03T03:34:19.803Z,1.20
2023-04-03T03:36:51.598Z,3.20
2023-04-03T03:39:23.588Z,2.67
2023-04-03T03:41:55.484Z,3.13
2023-04-03T03:44:26.953Z,1.30
2023-04-03T03:46:58.369Z,1.00
2023-04-03T03:49:31.909Z,1.40
2023-04-03T03:52:03.913Z,1.03
2023-04-03T03:54:35.477Z,1.33
2023-04-03T03:57:08.962Z,0.80
2023-04-03T03:59:40.431Z,1.13
2023-04-03T04:02:12.157Z,1.70
2023-04-03T04:04:45.697Z,1.23
2023-04-03T04:07:16.971Z,1.47
2023-04-03T04:09:49.088Z,0.70
2023-04-03T04:12:20.530Z,1.23
2023-04-03T04:14:52.176Z,1.33
2023-04-03T04:17:23.485Z,1.50
2023-04-03T04:19:58.068Z,1.90
2023-04-03T04:22:29.989Z,1.03
2023-04-03T04:25:01.452Z,2.53
2023-04-03T04:27:32.997Z,0.80
2023-04-03T04:30:04.867Z,1.77
2023-04-03T04:32:37.177Z,1.77
2023-04-03T04:35:12.699Z,1.40
2023-04-03T04:37:45.760Z,1.63
2023-04-03T04:40:18.202Z,1.00
2023-04-03T04:42:50.158Z,2.80
2023-04-03T04:45:21.890Z,1.27
2023-04-03T04:47:54.754Z,2.13
2023-04-03T04:50:28.876Z,2.17
2023-04-03T04:53:00.286Z,1.50
2023-04-03T04:55:31.748Z,1.07
2023-04-03T04:58:04.019Z,1.03
2023-04-03T05:00:35.614Z,1.13
2023-04-03T05:03:07.574Z,1.97
2023-04-03T05:05:41.120Z,1.60
2023-04-03T05:08:12.683Z,1.10
2023-04-03T05:10:44.772Z,1.67
2023-04-03T05:13:17.040Z,1.30
2023-04-03T05:15:49.140Z,0.87
2023-04-03T05:18:20.619Z,1.57
2023-04-03T05:20:56.941Z,0.60
2023-04-03T05:23:28.347Z,1.57
2023-04-03T05:26:00.158Z,0.70
2023-04-03T05:28:31.614Z,0.93
2023-04-03T05:31:03.730Z,0.80
2023-04-03T05:33:35.301Z,0.70
2023-04-03T05:36:11.010Z,0.80
2023-04-03T05:38:43.130Z,1.20
2023-04-03T05:41:15.470Z,1.23
2023-04-03T05:43:47.678Z,0.73
2023-04-03T05:46:21.174Z,0.80
2023-04-03T05:48:53.325Z,1.20
2023-04-03T05:51:29.415Z,1.33
2023-04-03T05:54:07.495Z,1.10
2023-04-03T05:56:39.104Z,0.90
2023-04-03T05:59:10.967Z,1.57
2023-04-03T06:01:42.606Z,2.47
2023-04-03T06:04:15.551Z,1.10
2023-04-03T06:06:54.088Z,1.53
2023-04-03T06:09:26.733Z,1.03
2023-04-03T06:11:58.109Z,1.23
2023-04-03T06:14:29.970Z,1.13
2023-04-03T06:17:01.982Z,1.20
2023-04-03T06:19:33.482Z,2.47
2023-04-03T06:22:08.229Z,1.93
2023-04-03T06:24:40.245Z,1.30
2023-04-03T06:27:11.867Z,1.53
2023-04-03T06:29:43.675Z,2.47
2023-04-03T06:32:15.949Z,2.07
2023-04-03T06:34:48.152Z,3.03
2023-04-03T06:37:23.678Z,4.00
2023-04-03T06:39:54.781Z,3.07
2023-04-03T06:42:26.291Z,2.40
2023-04-03T06:44:57.748Z,2.40
2023-04-03T06:47:29.406Z,2.30
2023-04-03T06:50:01.141Z,2.27
2023-04-03T06:52:35.029Z,2.00
2023-04-03T06:55:06.895Z,2.63
2023-04-03T06:57:39.377Z,1.83
2023-04-03T07:00:12.191Z,1.50
2023-04-03T07:02:43.732Z,2.00
2023-04-03T07:05:15.474Z,1.93
2023-04-03T07:07:48.851Z,1.70
2023-04-03T07:10:21.470Z,2.07
2023-04-03T07:12:53.210Z,2.23
2023-04-03T07:15:24.463Z,2.07
2023-04-03T07:17:55.954Z,1.77
2023-04-03T07:20:27.416Z,2.27
2023-04-03T07:23:04.061Z,2.13
2023-04-03T07:25:37.097Z,1.93
2023-04-03T07:28:10.266Z,1.97
2023-04-03T07:30:48.121Z,1.40
2023-04-03T07:33:20.904Z,1.33
2023-04-03T07:35:53.011Z,1.33
2023-04-03T07:38:26.457Z,1.30
2023-04-03T07:40:57.822Z,1.30
2023-04-03T07:43:30.054Z,1.70
2023-04-03T07:46:01.674Z,1.33
2023-04-03T07:48:33.177Z,1.43
2023-04-03T07:51:05.334Z,2.23
2023-04-03T07:53:38.860Z,1.80
2023-04-03T07:56:11.589Z,1.50
2023-04-03T07:58:42.785Z,1.50
2023-04-03T08:01:15.092Z,1.53
2023-04-03T08:03:46.936Z,1.67
2023-04-03T08:06:21.663Z,2.03
2023-04-03T08:09:00.988Z,1.70
2023-04-03T08:11:33.929Z,2.07
2023-04-03T08:14:05.343Z,2.33
2023-04-03T08:16:37.933Z,2.20
2023-04-03T08:19:15.146Z,2.77
2023-04-03T08:21:50.269Z,2.73
2023-04-03T08:24:24.102Z,2.30
2023-04-03T08:26:56.224Z,3.00
2023-04-03T08:29:27.688Z,2.60
2023-04-03T08:31:59.235Z,4.03
2023-04-03T08:34:31.273Z,2.53
2023-04-03T08:37:02.745Z,1.70
2023-04-03T08:39:36.767Z,2.13
2023-04-03T08:42:17.503Z,2.07
2023-04-03T08:44:55.183Z,1.80
2023-04-03T08:47:34.166Z,2.20
2023-04-03T08:50:10.836Z,2.20
2023-04-03T08:52:46.140Z,2.13
2023-04-03T08:55:26.805Z,1.80
2023-04-03T08:58:05.502Z,1.60
2023-04-03T09:00:45.403Z,1.50
2023-04-03T09:03:19.442Z,1.40
2023-04-03T09:05:56.994Z,1.13
2023-04-03T09:08:32.123Z,1.20
2023-04-03T09:11:14.727Z,0.97
2023-04-03T09:13:54.923Z,1.17
2023-04-03T09:16:33.849Z,1.10
2023-04-03T09:19:16.677Z,1.07
2023-04-03T09:21:48.144Z,1.37
2023-04-03T09:24:21.090Z,0.80
2023-04-03T09:27:03.176Z,1.10
2023-04-03T09:29:34.579Z,0.70
2023-04-03T09:32:07.224Z,0.80
2023-04-03T09:34:41.030Z,0.83
2023-04-03T09:37:12.412Z,0.70
2023-04-03T09:39:58.595Z,0.77
2023-04-03T09:42:34.790Z,0.73
2023-04-03T09:45:08.760Z,0.70
2023-04-03T09:47:41.109Z,2.00
2023-04-03T09:50:26.357Z,0.60
2023-04-03T09:52:57.865Z,0.80
2023-04-03T09:55:31.548Z,0.80
2023-04-03T09:58:07.292Z,0.93
2023-04-03T10:00:41.296Z,1.00
2023-04-03T10:03:29.771Z,0.83
2023-04-03T10:06:01.446Z,0.80
2023-04-03T10:08:36.670Z,1.20
2023-04-03T10:11:21.275Z,0.90
2023-04-03T10:14:01.495Z,0.60
2023-04-03T10:16:42.356Z,1.07
2023-04-03T10:19:34.138Z,0.80
2023-04-03T10:22:09.704Z,1.70
2023-04-03T10:24:56.612Z,0.70
2023-04-03T10:27:38.621Z,0.70
2023-04-03T10:30:23.946Z,0.60
2023-04-03T10:33:10.062Z,0.90
2023-04-03T10:35:54.376Z,0.57
2023-04-03T10:38:35.076Z,1.77
2023-04-03T10:41:15.811Z,0.60
2023-04-03T10:43:54.454Z,0.60
2023-04-03T10:46:36.045Z,0.60
2023-04-03T10:49:19.598Z,0.50
2023-04-03T10:51:55.404Z,0.50
2023-04-03T10:54:30.364Z,0.90
2023-04-03T10:57:12.450Z,0.63
2023-04-03T10:59:47.329Z,1.70
2023-04-03T11:02:31.044Z,0.70
2023-04-03T11:05:07.199Z,1.23
2023-04-03T11:07:43.313Z,0.70
2023-04-03T11:10:19.739Z,0.73
2023-04-03T11:12:55.050Z,0.40
2023-04-03T11:15:28.940Z,0.63
2023-04-03T11:18:09.777Z,0.53
2023-04-03T11:20:46.224Z,0.50
2023-04-03T11:23:28.307Z,0.77
2023-04-03T11:26:11.460Z,0.73
2023-04-03T11:28:43.601Z,0.60
2023-04-03T11:31:29.718Z,0.30
2023-04-03T11:34:18.529Z,0.73
2023-04-03T11:36:53.869Z,0.40
2023-04-03T11:39:29.841Z,0.63
2023-04-03T11:42:17.475Z,0.40
2023-04-03T11:44:49.068Z,0.30
2023-04-03T11:47:50.244Z,0.40
2023-04-03T11:50:47.453Z,0.70
2023-04-03T11:53:37.286Z,0.57
2023-04-03T11:56:34.849Z,0.70
2023-04-03T11:59:28.433Z,1.97
2023-04-03T12:02:00.607Z,1.40
2023-04-03T12:04:34.187Z,0.83
2023-04-03T12:07:18.890Z,1.37
2023-04-03T12:10:31.817Z,1.03
2023-04-03T12:13:06.418Z,0.97
2023-04-03T12:15:56.510Z,1.63
2023-04-03T12:19:02.309Z,0.80
2023-04-03T12:22:13.748Z,1.10
2023-04-03T12:24:46.371Z,1.50
2023-04-03T12:27:42.749Z,1.20
2023-04-03T12:30:28.620Z,1.10
2023-04-03T12:33:23.622Z,1.57
2023-04-03T12:36:08.777Z,3.07
2023-04-03T12:39:15.681Z,1.30
2023-04-03T12:41:57.826Z,1.20
2023-04-03T12:44:42.529Z,1.47
2023-04-03T12:47:34.962Z,1.60
2023-04-03T12:50:07.435Z,1.50
2023-04-03T12:52:45.159Z,1.60
2023-04-03T12:55:23.672Z,2.53
2023-04-03T12:57:57.154Z,1.63
2023-04-03T13:00:35.725Z,1.90
2023-04-03T13:03:09.714Z,1.60
2023-04-03T13:05:42.066Z,1.87
2023-04-03T13:08:19.172Z,1.67
2023-04-03T13:10:58.104Z,1.47
2023-04-03T13:13:31.865Z,1.63
2023-04-03T13:16:03.539Z,2.13
2023-04-03T13:18:37.085Z,1.77
2023-04-03T13:21:11.444Z,2.23
2023-04-03T13:23:47.741Z,2.30
2023-04-03T13:26:22.164Z,1.97
2023-04-03T13:28:55.995Z,3.83
2023-04-03T13:31:32.332Z,1.70
2023-04-03T13:34:08.056Z,1.60
2023-04-03T13:36:41.440Z,2.30
2023-04-03T13:39:26.972Z,2.00
2023-04-03T13:41:59.949Z,2.57
2023-04-03T13:44:38.180Z,2.93
2023-04-03T13:47:24.005Z,3.37
2023-04-03T13:50:08.126Z,3.60
2023-04-03T13:52:46.510Z,2.73
2023-04-03T13:55:26.475Z,3.00
2023-04-03T13:58:02.381Z,3.03
2023-04-03T14:00:42.665Z,3.20
2023-04-03T14:03:25.765Z,3.00
2023-04-03T14:05:57.954Z,3.87
2023-04-03T14:08:40.091Z,3.13
2023-04-03T14:11:18.548Z,3.57
2023-04-03T14:13:52.304Z,3.60
2023-04-03T14:16:29.693Z,4.27
2023-04-03T14:19:01.579Z,4.23
2023-04-03T14:21:32.776Z,3.70
2023-04-03T14:24:03.818Z,4.40
2023-04-03T14:26:34.873Z,3.90
2023-04-03T14:29:06.591Z,4.20
2023-04-03T14:31:40.703Z,4.10
2023-04-03T14:34:13.421Z,4.73
2023-04-03T14:36:46.883Z,4.50
2023-04-03T14:39:22.891Z,3.53
2023-04-03T14:41:54.304Z,3.67
2023-04-03T14:44:25.308Z,5.30
2023-04-03T14:46:58.840Z,3.97
2023-04-03T14:49:34.833Z,4.37
2023-04-03T14:52:06.411Z,4.37
2023-04-03T14:54:37.845Z,4.33
2023-04-03T14:57:17.815Z,5.57
2023-04-03T14:59:50.976Z,7.60
2023-04-03T15:02:34.695Z,8.77
2023-04-03T15:05:07.905Z,7.77
2023-04-03T15:07:41.993Z,9.57
2023-04-03T15:10:22.093Z,8.53
2023-04-03T15:18:18.371Z,8.67
2023-04-03T15:20:51.041Z,10.20
2023-04-03T15:23:22.171Z,9.10
2023-04-03T15:25:53.577Z,10.33
2023-04-03T15:28:30.421Z,10.00
2023-04-03T15:31:01.865Z,9.70
2023-04-03T15:33:46.630Z,11.27
2023-04-03T15:39:16.757Z,11.33
2023-04-03T15:41:48.333Z,11.43
2023-04-03T15:44:19.764Z,8.57
2023-04-03T15:46:53.591Z,9.23
2023-04-03T15:49:28.128Z,8.40
2023-04-03T15:51:59.583Z,8.57
2023-04-03T15:54:31.526Z,10.77
2023-04-03T15:57:03.159Z,6.80
2023-04-03T15:59:34.462Z,7.20
2023-04-03T16:02:09.173Z,10.77
2023-04-03T16:04:43.724Z,7.87
2023-04-03T16:07:15.987Z,9.13
2023-04-03T16:09:47.453Z,8.93
2023-04-03T16:12:19.210Z,8.17
2023-04-03T16:14:50.560Z,6.83
2023-04-03T16:17:22.971Z,10.77
2023-04-03T16:19:59.066Z,7.80
2023-04-03T16:22:33.775Z,8.80
2023-04-03T16:25:05.929Z,8.40
2023-04-03T16:27:38.288Z,8.20
2023-04-03T16:30:11.090Z,8.23
2023-04-03T16:32:43.524Z,9.07
2023-04-03T16:35:16.935Z,7.90
2023-04-03T16:37:48.431Z,10.13
2023-04-03T16:40:19.266Z,14.37
2023-04-03T16:42:50.236Z,8.33
2023-04-03T16:45:21.499Z,8.73
2023-04-03T16:47:53.026Z,8.37
2023-04-03T16:50:25.776Z,8.27
2023-04-03T16:52:56.761Z,9.17
2023-04-03T16:55:28.779Z,9.83
2023-04-03T16:58:00.247Z,10.47
2023-04-03T17:00:31.636Z,10.87
2023-04-03T17:03:02.605Z,8.17
2023-04-03T17:05:36.040Z,7.10
2023-04-03T17:08:06.979Z,7.33
2023-04-03T17:10:37.747Z,6.00
2023-04-03T17:13:09.146Z,5.20
2023-04-03T17:15:41.221Z,6.83
2023-04-03T17:18:12.823Z,4.83
2023-04-03T17:20:45.905Z,5.13
2023-04-03T17:23:17.162Z,3.97
2023-04-03T17:25:49.304Z,4.57
2023-04-03T17:28:20.296Z,4.27
2023-04-03T17:30:51.824Z,2.83
2023-04-03T17:33:22.640Z,2.70
2023-04-03T17:35:55.825Z,1.70
2023-04-03T17:38:27.055Z,0.70
2023-04-03T17:41:02.071Z,0.70
2023-04-03T17:43:33.528Z,0.70
2023-04-03T17:46:06.058Z,0.50
2023-04-03T17:48:38.472Z,1.10
2023-04-03T17:51:12.663Z,0.50
2023-04-03T17:53:45.383Z,1.80
2023-04-03T17:56:18.743Z,1.90
2023-04-03T17:58:50.912Z,0.50
2023-04-03T18:01:23.448Z,1.07
2023-04-03T18:03:56.952Z,0.70
2023-04-03T18:06:33.833Z,0.80
2023-04-03T18:09:08.546Z,0.73
2023-04-03T18:11:40.021Z,0.87
2023-04-03T18:14:12.864Z,0.80
2023-04-03T18:16:44.765Z,1.20
2023-04-03T18:21:53.297Z,1.20
2023-04-03T18:24:26.280Z,1.67
2023-04-03T18:27:01.981Z,1.30
2023-04-03T18:29:35.490Z,1.23
2023-04-03T18:32:07.457Z,1.20
2023-04-03T18:34:39.133Z,1.10
2023-04-03T18:37:13.336Z,0.90
2023-04-03T18:39:44.891Z,1.33
2023-04-03T18:42:20.172Z,1.27
2023-04-03T18:44:55.562Z,1.37
2023-04-03T18:47:27.766Z,0.80
2023-04-03T18:49:59.116Z,0.80
2023-04-03T18:52:33.752Z,1.10
2023-04-03T18:55:04.909Z,1.17
2023-04-03T18:57:36.426Z,0.73
2023-04-03T19:00:09.525Z,0.80
2023-04-03T19:02:41.654Z,0.50
2023-04-03T19:05:17.447Z,0.50
2023-04-03T19:07:51.845Z,0.50
2023-04-03T19:10:24.004Z,1.10
2023-04-03T19:12:56.104Z,1.30
2023-04-03T19:15:28.638Z,1.53
2023-04-03T19:18:00.112Z,0.73
2023-04-03T19:20:31.774Z,3.43
2023-04-03T19:23:04.687Z,1.50
2023-04-03T19:25:36.633Z,0.80
2023-04-03T19:28:08.264Z,0.67
2023-04-03T19:30:42.295Z,1.47
2023-04-03T19:33:14.107Z,2.23
2023-04-03T19:35:45.809Z,0.70
2023-04-03T19:38:19.904Z,1.23
2023-04-03T19:40:51.660Z,0.60
2023-04-03T19:43:23.386Z,0.93
2023-04-03T19:45:55.979Z,1.90
2023-04-03T19:48:28.407Z,0.70
2023-04-03T19:51:00.379Z,0.70
2023-04-03T19:53:34.304Z,1.07
2023-04-03T19:56:05.938Z,0.93
2023-04-03T19:58:38.295Z,0.73
2023-04-03T20:01:10.054Z,1.10
2023-04-03T20:03:41.430Z,0.63
2023-04-03T20:06:13.081Z,1.17
2023-04-03T20:08:46.837Z,0.63
2023-04-03T20:11:18.129Z,0.80
2023-04-03T20:13:52.206Z,0.83
2023-04-03T20:16:27.118Z,0.63
2023-04-03T20:18:58.744Z,0.67
2023-04-03T20:21:35.084Z,0.80
2023-04-03T20:24:12.275Z,0.70
2023-04-03T20:26:47.384Z,2.67
2023-04-03T20:29:20.126Z,0.40
2023-04-03T20:31:52.062Z,0.60
2023-04-03T20:34:23.623Z,1.10
2023-04-03T20:36:56.563Z,0.97
2023-04-03T20:39:29.707Z,1.07
2023-04-03T20:42:01.174Z,0.87
2023-04-03T20:44:33.160Z,1.33
2023-04-03T20:47:04.562Z,1.50
2023-04-03T20:49:37.492Z,1.00
2023-04-03T20:52:10.458Z,2.27
2023-04-03T20:54:44.088Z,1.13
2023-04-03T20:57:16.154Z,1.53
2023-04-03T20:59:48.034Z,1.20
2023-04-03T21:02:19.739Z,1.40
2023-04-03T21:04:55.297Z,1.90
2023-04-03T21:08:02.930Z,0.80
2023-04-03T21:11:10.679Z,1.43
2023-04-03T21:14:18.773Z,0.60
2023-04-03T21:16:49.198Z,0.90
2023-04-03T21:19:24.742Z,2.17
2023-04-03T21:21:56.335Z,0.80
2023-04-03T21:24:28.779Z,1.40
2023-04-03T21:27:03.002Z,1.73
2023-04-03T21:29:35.751Z,1.17
2023-04-03T21:32:07.954Z,1.73
2023-04-03T21:34:41.859Z,1.10
2023-04-03T21:37:13.802Z,1.00
2023-04-03T21:39:45.941Z,0.90
2023-04-03T21:42:17.696Z,0.90
2023-04-03T21:44:52.272Z,0.80
2023-04-03T21:47:24.654Z,1.07
2023-04-03T21:49:58.519Z,1.37
2023-04-03T21:52:32.529Z,1.43
2023-04-03T21:55:03.992Z,0.90
2023-04-03T21:57:35.444Z,0.93
2023-04-03T22:00:07.432Z,1.13
2023-04-03T22:02:42.614Z,0.80
2023-04-03T22:05:16.619Z,0.70
2023-04-03T22:07:49.778Z,1.00
2023-04-03T22:10:21.886Z,0.70
2023-04-03T22:12:54.829Z,0.63
2023-04-03T22:15:26.147Z,1.27
2023-04-03T22:17:57.176Z,0.53
2023-04-03T22:20:31.270Z,1.57
2023-04-03T22:23:03.823Z,0.63
2023-04-03T22:25:35.473Z,0.53
2023-04-03T22:28:06.441Z,0.60
2023-04-03T22:30:37.704Z,0.50
2023-04-03T22:33:10.281Z,0.70
2023-04-03T22:35:49.525Z,0.70
2023-04-03T22:38:21.790Z,1.93
2023-04-03T22:41:01.628Z,0.40
2023-04-03T22:43:34.496Z,1.50
2023-04-03T22:46:06.127Z,1.77
2023-04-03T22:48:37.841Z,0.50
2023-04-03T22:51:12.004Z,0.60
2023-04-03T22:53:42.951Z,0.67
2023-04-03T22:56:15.688Z,0.77
2023-04-03T22:58:49.123Z,0.73
2023-04-03T23:01:21.518Z,0.50
2023-04-03T23:03:52.536Z,0.40
2023-04-03T23:06:24.877Z,0.37
2023-04-03T23:08:56.077Z,0.40
2023-04-03T23:11:26.778Z,0.57
2023-04-03T23:13:58.416Z,1.07
2023-04-03T23:16:29.381Z,0.50
2023-04-03T23:19:00.174Z,1.13
2023-04-03T23:21:33.874Z,2.20
2023-04-03T23:24:04.855Z,1.13
2023-04-03T23:26:36.388Z,1.97
2023-04-03T23:29:08.133Z,0.60
2023-04-03T23:31:39.105Z,0.93
2023-04-03T23:34:10.755Z,0.60
2023-04-03T23:36:44.645Z,0.57
2023-04-03T23:39:15.840Z,0.50
2023-04-03T23:41:48.630Z,3.07
2023-04-03T23:44:20.504Z,1.43
2023-04-03T23:46:51.644Z,0.60
2023-04-03T23:49:23.305Z,1.07
2023-04-03T23:51:57.757Z,0.50
2023-04-03T23:54:29.231Z,1.23
2023-04-03T23:57:01.653Z,0.50
2023-04-03T23:59:33.499Z,0.50
